SPHXT ENVA-ZZZZ
Flight info
| Callsign | SPHXT |
|---|---|
| Flight time | N/A |
| Altitude | 1500 |
| Route | VFR/J36 |
| Aircraft | EC45 |
Departure
| Time | 2026-04-30 20:13 |
|---|---|
| Airport | Trondheim Airport, Værnes (ENVA) |
Arrival
| Time | N/A |
|---|---|
| Airport | ZZZZ |
| Time | Latitude | Longitude | Altitude | Speed | Heading |
|---|---|---|---|---|---|
| 2026-04-30 20:06 | 63.45243 | 10.92486 | 42 ft | 0 kts | 2° |
| 2026-04-30 20:11 | 63.45246 | 10.92468 | 45 ft | 3 kts | 305° |
| 2026-04-30 20:11 | 63.45290 | 10.92429 | 45 ft | 8 kts | 355° |
| 2026-04-30 20:11 | 63.45307 | 10.92434 | 45 ft | 3 kts | 338° |
| 2026-04-30 20:12 | 63.45461 | 10.92426 | 104 ft | 23 kts | 352° |
| 2026-04-30 20:12 | 63.45687 | 10.91871 | 192 ft | 79 kts | 283° |
| 2026-04-30 20:12 | 63.45900 | 10.90496 | 297 ft | 97 kts | 300° |
| 2026-04-30 20:13 | 63.46511 | 10.89701 | 414 ft | 107 kts | 340° |
| 2026-04-30 20:13 | 63.47205 | 10.89210 | 676 ft | 102 kts | 339° |
| 2026-04-30 20:13 | 63.47819 | 10.88517 | 944 ft | 97 kts | 324° |
| 2026-04-30 20:13 | 63.48383 | 10.87699 | 1202 ft | 99 kts | 327° |
| 2026-04-30 20:14 | 63.48980 | 10.86845 | 1416 ft | 106 kts | 325° |
| 2026-04-30 20:14 | 63.49668 | 10.85784 | 1308 ft | 128 kts | 322° |
| 2026-04-30 20:14 | 63.50359 | 10.84593 | 1395 ft | 123 kts | 317° |
| 2026-04-30 20:14 | 63.50941 | 10.83269 | 1456 ft | 118 kts | 306° |
| 2026-04-30 20:15 | 63.51419 | 10.81747 | 1363 ft | 122 kts | 302° |
| 2026-04-30 20:15 | 63.51987 | 10.80458 | 1385 ft | 108 kts | 315° |
| 2026-04-30 20:15 | 63.52387 | 10.79213 | 1474 ft | 91 kts | 283° |
| 2026-04-30 20:15 | 63.52394 | 10.77886 | 1556 ft | 87 kts | 282° |
| 2026-04-30 20:16 | 63.52906 | 10.77068 | 1369 ft | 109 kts | 346° |
| 2026-04-30 20:16 | 63.53570 | 10.77756 | 1329 ft | 106 kts | 48° |
| 2026-04-30 20:16 | 63.53789 | 10.79230 | 1441 ft | 97 kts | 84° |
| 2026-04-30 20:16 | 63.53776 | 10.80664 | 1663 ft | 88 kts | 92° |
| 2026-04-30 20:17 | 63.53765 | 10.81992 | 1873 ft | 82 kts | 90° |
| 2026-04-30 20:17 | 63.53769 | 10.83317 | 1969 ft | 93 kts | 89° |
| 2026-04-30 20:17 | 63.53778 | 10.84865 | 2035 ft | 105 kts | 91° |
| 2026-04-30 20:17 | 63.53585 | 10.86461 | 2115 ft | 107 kts | 118° |
| 2026-04-30 20:18 | 63.53060 | 10.87567 | 2264 ft | 103 kts | 152° |
| 2026-04-30 20:18 | 63.52507 | 10.88576 | 2272 ft | 111 kts | 116° |
| 2026-04-30 20:18 | 63.52551 | 10.90263 | 2131 ft | 111 kts | 78° |
| 2026-04-30 20:18 | 63.52422 | 10.91869 | 2065 ft | 107 kts | 112° |
| 2026-04-30 20:19 | 63.51913 | 10.93176 | 1836 ft | 112 kts | 143° |
| 2026-04-30 20:19 | 63.51462 | 10.93601 | 1861 ft | 101 kts | 166° |
| 2026-04-30 20:19 | 63.50526 | 10.93527 | 1639 ft | 109 kts | 181° |
| 2026-04-30 20:19 | 63.49747 | 10.93596 | 1461 ft | 111 kts | 173° |
| 2026-04-30 20:20 | 63.48987 | 10.93882 | 1294 ft | 114 kts | 167° |
| 2026-04-30 20:20 | 63.48193 | 10.94443 | 985 ft | 122 kts | 156° |
| 2026-04-30 20:20 | 63.47437 | 10.95089 | 859 ft | 109 kts | 164° |
| 2026-04-30 20:20 | 63.46751 | 10.95318 | 842 ft | 94 kts | 174° |
| 2026-04-30 20:21 | 63.46068 | 10.95161 | 565 ft | 108 kts | 204° |
| 2026-04-30 20:21 | 63.45742 | 10.93801 | 208 ft | 105 kts | 275° |
| 2026-04-30 20:21 | 63.45774 | 10.92289 | 122 ft | 92 kts | 265° |
| 2026-04-30 20:21 | 63.45777 | 10.90888 | 100 ft | 89 kts | 266° |
| 2026-04-30 20:22 | 63.45450 | 10.89987 | 214 ft | 64 kts | 198° |
| 2026-04-30 20:22 | 63.45004 | 10.89436 | 397 ft | 78 kts | 211° |
| 2026-04-30 20:22 | 63.44499 | 10.88868 | 651 ft | 85 kts | 208° |
| 2026-04-30 20:22 | 63.43954 | 10.88295 | 864 ft | 90 kts | 206° |
| 2026-04-30 20:23 | 63.43366 | 10.87708 | 1058 ft | 97 kts | 207° |
| 2026-04-30 20:23 | 63.42778 | 10.86774 | 1144 ft | 111 kts | 223° |
| 2026-04-30 20:23 | 63.42222 | 10.85470 | 1169 ft | 117 kts | 227° |
| 2026-04-30 20:23 | 63.41801 | 10.83982 | 1060 ft | 118 kts | 248° |
| 2026-04-30 20:24 | 63.41633 | 10.82221 | 990 ft | 113 kts | 256° |
| 2026-04-30 20:24 | 63.41510 | 10.80505 | 946 ft | 113 kts | 260° |
| 2026-04-30 20:24 | 63.41447 | 10.78735 | 883 ft | 112 kts | 262° |
| 2026-04-30 20:24 | 63.41379 | 10.77086 | 1027 ft | 95 kts | 262° |
| 2026-04-30 20:25 | 63.41337 | 10.74250 | 1267 ft | 105 kts | 268° |
| 2026-04-30 20:25 | 63.41334 | 10.72501 | 1176 ft | 119 kts | 267° |
| 2026-04-30 20:26 | 63.41398 | 10.68852 | 1251 ft | 115 kts | 272° |
| 2026-04-30 20:26 | 63.41616 | 10.65204 | 1086 ft | 118 kts | 275° |
| 2026-04-30 20:26 | 63.41716 | 10.63523 | 1231 ft | 101 kts | 274° |
| 2026-04-30 20:27 | 63.41863 | 10.60729 | 1171 ft | 101 kts | 275° |
| 2026-04-30 20:27 | 63.42292 | 10.57757 | 1310 ft | 112 kts | 287° |
| 2026-04-30 20:28 | 63.42740 | 10.54399 | 1199 ft | 112 kts | 283° |
| 2026-04-30 20:28 | 63.43180 | 10.51242 | 1288 ft | 100 kts | 295° |
| 2026-04-30 20:29 | 63.43782 | 10.48564 | 1408 ft | 94 kts | 287° |
| 2026-04-30 20:30 | 63.43580 | 10.44091 | 1493 ft | 97 kts | 239° |
| 2026-04-30 20:30 | 63.41951 | 10.41557 | 1684 ft | 95 kts | 210° |
| 2026-04-30 20:31 | 63.40122 | 10.39915 | 1866 ft | 97 kts | 201° |
| 2026-04-30 20:32 | 63.38066 | 10.38605 | 1938 ft | 106 kts | 196° |
| 2026-04-30 20:32 | 63.36546 | 10.37857 | 1908 ft | 106 kts | 189° |
| 2026-04-30 20:33 | 63.35872 | 10.37706 | 1869 ft | 106 kts | 184° |
| 2026-04-30 20:33 | 63.34452 | 10.37760 | 1628 ft | 98 kts | 187° |
| 2026-04-30 20:33 | 63.33885 | 10.37075 | 1502 ft | 90 kts | 229° |
| 2026-04-30 20:34 | 63.34241 | 10.35227 | 1276 ft | 79 kts | 9° |
| 2026-04-30 20:34 | 63.35012 | 10.36061 | 1469 ft | 48 kts | 17° |
| 2026-04-30 20:35 | 63.35339 | 10.36387 | 1513 ft | 58 kts | 28° |
| 2026-04-30 20:35 | 63.35776 | 10.36685 | 1510 ft | 73 kts | 17° |
| 2026-04-30 20:35 | 63.36861 | 10.37572 | 1499 ft | 96 kts | 30° |
| 2026-04-30 20:36 | 63.37438 | 10.38530 | 1516 ft | 109 kts | 38° |
| 2026-04-30 20:36 | 63.38012 | 10.39735 | 1501 ft | 117 kts | 46° |
| 2026-04-30 20:36 | 63.39091 | 10.42575 | 1437 ft | 122 kts | 56° |
| 2026-04-30 20:37 | 63.39515 | 10.44196 | 1355 ft | 119 kts | 58° |
| 2026-04-30 20:37 | 63.39961 | 10.45733 | 1312 ft | 113 kts | 55° |
| 2026-04-30 20:37 | 63.40357 | 10.47115 | 1414 ft | 100 kts | 60° |
| 2026-04-30 20:37 | 63.40650 | 10.48479 | 1480 ft | 98 kts | 63° |
| 2026-04-30 20:38 | 63.41015 | 10.49869 | 1378 ft | 108 kts | 58° |
| 2026-04-30 20:38 | 63.41432 | 10.51325 | 1277 ft | 113 kts | 56° |
| 2026-04-30 20:38 | 63.41885 | 10.52796 | 1181 ft | 116 kts | 53° |
| 2026-04-30 20:39 | 63.42879 | 10.55696 | 1000 ft | 118 kts | 50° |
| 2026-04-30 20:39 | 63.43367 | 10.57109 | 1029 ft | 107 kts | 57° |
| 2026-04-30 20:39 | 63.43652 | 10.58532 | 1155 ft | 96 kts | 69° |
| 2026-04-30 20:40 | 63.43945 | 10.61377 | 1239 ft | 97 kts | 79° |
| 2026-04-30 20:40 | 63.44084 | 10.62867 | 1231 ft | 99 kts | 78° |
| 2026-04-30 20:40 | 63.44242 | 10.64374 | 1233 ft | 100 kts | 76° |
| 2026-04-30 20:41 | 63.44530 | 10.67455 | 1228 ft | 102 kts | 82° |
| 2026-04-30 20:41 | 63.44619 | 10.69028 | 1238 ft | 102 kts | 84° |
| 2026-04-30 20:41 | 63.44696 | 10.70614 | 1279 ft | 103 kts | 85° |
| 2026-04-30 20:41 | 63.44761 | 10.72210 | 1320 ft | 103 kts | 85° |
| 2026-04-30 20:42 | 63.44821 | 10.73785 | 1389 ft | 100 kts | 86° |
| 2026-04-30 20:42 | 63.44875 | 10.75318 | 1468 ft | 98 kts | 86° |
| 2026-04-30 20:42 | 63.45035 | 10.78343 | 1674 ft | 100 kts | 82° |
| 2026-04-30 20:43 | 63.45155 | 10.79988 | 1554 ft | 112 kts | 78° |
| 2026-04-30 20:43 | 63.45308 | 10.81741 | 1420 ft | 118 kts | 78° |
| 2026-04-30 20:43 | 63.45437 | 10.83612 | 1264 ft | 121 kts | 83° |
| 2026-04-30 20:44 | 63.45519 | 10.87198 | 1012 ft | 110 kts | 87° |
| 2026-04-30 20:44 | 63.45564 | 10.88961 | 648 ft | 113 kts | 84° |
| 2026-04-30 20:44 | 63.45638 | 10.91491 | 317 ft | 57 kts | 90° |
| 2026-04-30 20:45 | 63.45574 | 10.92424 | 163 ft | 12 kts | 181° |
| 2026-04-30 20:45 | 63.45440 | 10.92424 | 138 ft | 22 kts | 168° |
| 2026-04-30 20:45 | 63.45358 | 10.92410 | 60 ft | 8 kts | 164° |
| 2026-04-30 20:46 | 63.45294 | 10.92424 | 51 ft | 7 kts | 153° |
| 2026-04-30 20:46 | 63.45238 | 10.92452 | 56 ft | 12 kts | 73° |
| 2026-04-30 20:47 | 63.45245 | 10.92491 | 42 ft | 0 kts | 359° |